sensor_id;sensor_type;location;lat;lon;timestamp;P1;durP1;ratioP1;P2;durP2;ratioP2
25129;SDS011;13308;50.860;13.664;2023-07-20T05:19:05;16.23;;;12.13;;
25129;SDS011;13308;50.860;13.664;2023-07-20T05:21:30;17.20;;;11.45;;
25129;SDS011;13308;50.860;13.664;2023-07-20T05:23:56;17.00;;;12.63;;
25129;SDS011;13308;50.860;13.664;2023-07-20T05:26:22;14.32;;;11.77;;
25129;SDS011;13308;50.860;13.664;2023-07-20T05:28:47;13.60;;;11.15;;
25129;SDS011;13308;50.860;13.664;2023-07-20T05:31:12;11.88;;;10.50;;
25129;SDS011;13308;50.860;13.664;2023-07-20T05:33:38;13.85;;;11.05;;
25129;SDS011;13308;50.860;13.664;2023-07-20T05:36:03;12.73;;;11.43;;
25129;SDS011;13308;50.860;13.664;2023-07-20T05:38:29;11.55;;;10.02;;
25129;SDS011;13308;50.860;13.664;2023-07-20T05:40:58;11.13;;;10.07;;
25129;SDS011;13308;50.860;13.664;2023-07-20T05:43:24;13.55;;;9.77;;
25129;SDS011;13308;50.860;13.664;2023-07-20T05:45:50;13.98;;;9.40;;
25129;SDS011;13308;50.860;13.664;2023-07-20T05:48:15;15.80;;;10.48;;
25129;SDS011;13308;50.860;13.664;2023-07-20T05:50:42;11.77;;;9.90;;
25129;SDS011;13308;50.860;13.664;2023-07-20T05:53:08;10.52;;;9.45;;
25129;SDS011;13308;50.860;13.664;2023-07-20T05:55:33;10.43;;;9.43;;
25129;SDS011;13308;50.860;13.664;2023-07-20T05:57:59;12.77;;;9.93;;
25129;SDS011;13308;50.860;13.664;2023-07-20T06:00:24;11.13;;;9.82;;
25129;SDS011;13308;50.860;13.664;2023-07-20T06:02:52;10.38;;;9.38;;
25129;SDS011;13308;50.860;13.664;2023-07-20T06:05:18;11.63;;;8.65;;
25129;SDS011;13308;50.860;13.664;2023-07-20T06:07:45;9.68;;;8.80;;
25129;SDS011;13308;50.860;13.664;2023-07-20T06:10:10;8.38;;;7.57;;
25129;SDS011;13308;50.860;13.664;2023-07-20T06:12:36;13.18;;;9.93;;
25129;SDS011;13308;50.860;13.664;2023-07-20T06:15:04;11.50;;;10.25;;
25129;SDS011;13308;50.860;13.664;2023-07-20T06:17:30;11.82;;;9.93;;
25129;SDS011;13308;50.860;13.664;2023-07-20T06:19:56;13.07;;;10.85;;
25129;SDS011;13308;50.860;13.664;2023-07-20T06:22:22;10.95;;;9.85;;
25129;SDS011;13308;50.860;13.664;2023-07-20T06:24:47;12.20;;;11.00;;
25129;SDS011;13308;50.860;13.664;2023-07-20T06:27:12;11.50;;;10.32;;
25129;SDS011;13308;50.860;13.664;2023-07-20T06:29:38;11.57;;;10.23;;
25129;SDS011;13308;50.860;13.664;2023-07-20T06:32:04;12.32;;;10.77;;
25129;SDS011;13308;50.860;13.664;2023-07-20T06:34:30;12.55;;;11.25;;
25129;SDS011;13308;50.860;13.664;2023-07-20T06:36:55;13.13;;;11.77;;
25129;SDS011;13308;50.860;13.664;2023-07-20T06:39:20;15.77;;;12.05;;
25129;SDS011;13308;50.860;13.664;2023-07-20T06:41:47;15.00;;;11.98;;
25129;SDS011;13308;50.860;13.664;2023-07-20T06:44:12;11.70;;;10.60;;
25129;SDS011;13308;50.860;13.664;2023-07-20T06:46:38;14.10;;;11.45;;
25129;SDS011;13308;50.860;13.664;2023-07-20T06:49:05;11.40;;;10.23;;
25129;SDS011;13308;50.860;13.664;2023-07-20T06:51:32;10.98;;;9.88;;
25129;SDS011;13308;50.860;13.664;2023-07-20T06:53:57;8.95;;;8.18;;
25129;SDS011;13308;50.860;13.664;2023-07-20T06:56:22;8.02;;;7.32;;
25129;SDS011;13308;50.860;13.664;2023-07-20T06:58:48;8.77;;;7.88;;
25129;SDS011;13308;50.860;13.664;2023-07-20T07:01:13;7.80;;;7.10;;
25129;SDS011;13308;50.860;13.664;2023-07-20T07:03:38;8.07;;;6.82;;
25129;SDS011;13308;50.860;13.664;2023-07-20T07:06:04;7.80;;;6.97;;
25129;SDS011;13308;50.860;13.664;2023-07-20T07:08:29;7.97;;;7.18;;
25129;SDS011;13308;50.860;13.664;2023-07-20T07:10:54;7.20;;;6.60;;
25129;SDS011;13308;50.860;13.664;2023-07-20T07:13:20;6.75;;;5.88;;
25129;SDS011;13308;50.860;13.664;2023-07-20T07:15:45;7.47;;;6.78;;
25129;SDS011;13308;50.860;13.664;2023-07-20T07:18:11;7.53;;;6.80;;
25129;SDS011;13308;50.860;13.664;2023-07-20T07:20:36;6.85;;;6.15;;
25129;SDS011;13308;50.860;13.664;2023-07-20T07:23:02;5.43;;;5.00;;
25129;SDS011;13308;50.860;13.664;2023-07-20T07:25:27;5.90;;;5.35;;
25129;SDS011;13308;50.860;13.664;2023-07-20T07:27:53;5.30;;;4.80;;
25129;SDS011;13308;50.860;13.664;2023-07-20T07:30:19;4.30;;;3.92;;
25129;SDS011;13308;50.860;13.664;2023-07-20T07:32:45;5.90;;;5.15;;
25129;SDS011;13308;50.860;13.664;2023-07-20T07:35:10;5.00;;;4.60;;
25129;SDS011;13308;50.860;13.664;2023-07-20T07:37:36;5.72;;;5.22;;
25129;SDS011;13308;50.860;13.664;2023-07-20T07:40:02;5.05;;;4.65;;
25129;SDS011;13308;50.860;13.664;2023-07-20T07:42:28;5.55;;;5.07;;
25129;SDS011;13308;50.860;13.664;2023-07-20T07:44:54;5.15;;;4.75;;
25129;SDS011;13308;50.860;13.664;2023-07-20T07:47:19;5.13;;;4.63;;
25129;SDS011;13308;50.860;13.664;2023-07-20T07:49:45;4.35;;;3.95;;
25129;SDS011;13308;50.860;13.664;2023-07-20T07:52:10;3.90;;;3.60;;
25129;SDS011;13308;50.860;13.664;2023-07-20T07:54:35;4.85;;;4.45;;
25129;SDS011;13308;50.860;13.664;2023-07-20T07:57:01;4.47;;;4.07;;
25129;SDS011;13308;50.860;13.664;2023-07-20T07:59:26;4.30;;;4.00;;
25129;SDS011;13308;50.860;13.664;2023-07-20T08:01:51;4.00;;;3.65;;
25129;SDS011;13308;50.860;13.664;2023-07-20T08:04:17;4.07;;;3.78;;
25129;SDS011;13308;50.860;13.664;2023-07-20T08:06:42;3.60;;;3.30;;
25129;SDS011;13308;50.860;13.664;2023-07-20T08:09:08;4.03;;;3.67;;
25129;SDS011;13308;50.860;13.664;2023-07-20T08:11:33;4.25;;;3.58;;
25129;SDS011;13308;50.860;13.664;2023-07-20T08:13:59;3.60;;;3.40;;
25129;SDS011;13308;50.860;13.664;2023-07-20T08:16:25;3.83;;;3.53;;
25129;SDS011;13308;50.860;13.664;2023-07-20T08:18:51;3.72;;;3.42;;
25129;SDS011;13308;50.860;13.664;2023-07-20T08:21:16;5.53;;;4.35;;
25129;SDS011;13308;50.860;13.664;2023-07-20T08:23:41;4.28;;;3.97;;
25129;SDS011;13308;50.860;13.664;2023-07-20T08:26:07;5.25;;;4.85;;
25129;SDS011;13308;50.860;13.664;2023-07-20T08:28:33;4.68;;;4.30;;
25129;SDS011;13308;50.860;13.664;2023-07-20T08:30:59;4.78;;;4.15;;
25129;SDS011;13308;50.860;13.664;2023-07-20T08:33:24;4.82;;;4.32;;
25129;SDS011;13308;50.860;13.664;2023-07-20T08:35:49;4.82;;;4.50;;
25129;SDS011;13308;50.860;13.664;2023-07-20T08:38:15;3.92;;;3.63;;
25129;SDS011;13308;50.860;13.664;2023-07-20T08:40:44;4.82;;;4.43;;
25129;SDS011;13308;50.860;13.664;2023-07-20T08:43:11;4.43;;;4.13;;
25129;SDS011;13308;50.860;13.664;2023-07-20T08:45:38;4.40;;;4.10;;
25129;SDS011;13308;50.860;13.664;2023-07-20T08:48:06;4.20;;;3.88;;
25129;SDS011;13308;50.860;13.664;2023-07-20T08:50:32;4.97;;;4.68;;
25129;SDS011;13308;50.860;13.664;2023-07-20T08:52:59;4.53;;;4.15;;
25129;SDS011;13308;50.860;13.664;2023-07-20T08:55:26;4.60;;;4.20;;
25129;SDS011;13308;50.860;13.664;2023-07-20T08:57:53;4.60;;;4.20;;
25129;SDS011;13308;50.860;13.664;2023-07-20T09:00:20;4.03;;;3.72;;
25129;SDS011;13308;50.860;13.664;2023-07-20T09:02:48;4.10;;;3.80;;
25129;SDS011;13308;50.860;13.664;2023-07-20T09:05:23;4.75;;;4.35;;
25129;SDS011;13308;50.860;13.664;2023-07-20T09:07:50;3.50;;;3.20;;
25129;SDS011;13308;50.860;13.664;2023-07-20T09:10:17;3.13;;;2.83;;
25129;SDS011;13308;50.860;13.664;2023-07-20T09:12:42;3.47;;;2.97;;
25129;SDS011;13308;50.860;13.664;2023-07-20T09:15:09;3.17;;;2.97;;
25129;SDS011;13308;50.860;13.664;2023-07-20T09:17:36;5.72;;;3.45;;
25129;SDS011;13308;50.860;13.664;2023-07-20T09:20:06;3.15;;;2.75;;
25129;SDS011;13308;50.860;13.664;2023-07-20T09:22:36;3.28;;;3.00;;
25129;SDS011;13308;50.860;13.664;2023-07-20T09:25:06;3.53;;;3.22;;
25129;SDS011;13308;50.860;13.664;2023-07-20T09:27:36;4.00;;;3.40;;
25129;SDS011;13308;50.860;13.664;2023-07-20T09:30:03;4.18;;;3.88;;
25129;SDS011;13308;50.860;13.664;2023-07-20T09:32:29;5.20;;;3.78;;
25129;SDS011;13308;50.860;13.664;2023-07-20T09:34:54;3.05;;;2.85;;
25129;SDS011;13308;50.860;13.664;2023-07-20T09:37:23;3.35;;;2.60;;
25129;SDS011;13308;50.860;13.664;2023-07-20T09:39:51;2.70;;;2.50;;
25129;SDS011;13308;50.860;13.664;2023-07-20T09:42:18;3.20;;;2.55;;
25129;SDS011;13308;50.860;13.664;2023-07-20T09:44:43;3.60;;;3.30;;
25129;SDS011;13308;50.860;13.664;2023-07-20T09:47:09;3.60;;;3.20;;
25129;SDS011;13308;50.860;13.664;2023-07-20T09:49:38;3.65;;;2.92;;
25129;SDS011;13308;50.860;13.664;2023-07-20T09:52:10;4.07;;;3.47;;
25129;SDS011;13308;50.860;13.664;2023-07-20T09:54:39;2.92;;;2.72;;
25129;SDS011;13308;50.860;13.664;2023-07-20T09:57:08;3.45;;;3.13;;
25129;SDS011;13308;50.860;13.664;2023-07-20T09:59:35;3.38;;;2.70;;
25129;SDS011;13308;50.860;13.664;2023-07-20T10:02:01;3.45;;;3.13;;
25129;SDS011;13308;50.860;13.664;2023-07-20T10:04:30;2.90;;;2.70;;
25129;SDS011;13308;50.860;13.664;2023-07-20T10:06:56;3.40;;;3.10;;
25129;SDS011;13308;50.860;13.664;2023-07-20T10:09:29;3.58;;;2.30;;
25129;SDS011;13308;50.860;13.664;2023-07-20T10:11:57;3.90;;;2.83;;
25129;SDS011;13308;50.860;13.664;2023-07-20T10:14:24;3.38;;;2.97;;
25129;SDS011;13308;50.860;13.664;2023-07-20T10:16:51;3.88;;;2.97;;
25129;SDS011;13308;50.860;13.664;2023-07-20T10:19:24;3.28;;;2.97;;
25129;SDS011;13308;50.860;13.664;2023-07-20T10:21:57;2.40;;;2.25;;
25129;SDS011;13308;50.860;13.664;2023-07-20T10:24:28;3.72;;;3.03;;
25129;SDS011;13308;50.860;13.664;2023-07-20T10:26:55;3.15;;;2.85;;
25129;SDS011;13308;50.860;13.664;2023-07-20T10:29:21;3.80;;;3.20;;
25129;SDS011;13308;50.860;13.664;2023-07-20T10:31:48;4.03;;;3.72;;
25129;SDS011;13308;50.860;13.664;2023-07-20T10:34:13;5.13;;;4.72;;
25129;SDS011;13308;50.860;13.664;2023-07-20T10:36:45;3.97;;;3.53;;
25129;SDS011;13308;50.860;13.664;2023-07-20T10:42:09;3.30;;;3.08;;
25129;SDS011;13308;50.860;13.664;2023-07-20T10:44:38;6.78;;;4.35;;
25129;SDS011;13308;50.860;13.664;2023-07-20T10:47:11;4.80;;;4.40;;
25129;SDS011;13308;50.860;13.664;2023-07-20T10:52:25;5.18;;;2.85;;
25129;SDS011;13308;50.860;13.664;2023-07-20T10:54:51;3.28;;;2.97;;
25129;SDS011;13308;50.860;13.664;2023-07-20T10:57:29;3.35;;;3.05;;
25129;SDS011;13308;50.860;13.664;2023-07-20T11:00:11;3.70;;;3.40;;
25129;SDS011;13308;50.860;13.664;2023-07-20T11:02:46;3.10;;;2.80;;
25129;SDS011;13308;50.860;13.664;2023-07-20T11:05:31;4.03;;;3.72;;
25129;SDS011;13308;50.860;13.664;2023-07-20T11:07:58;3.30;;;3.00;;
25129;SDS011;13308;50.860;13.664;2023-07-20T11:10:23;3.38;;;3.08;;
25129;SDS011;13308;50.860;13.664;2023-07-20T11:18:21;3.38;;;3.08;;
25129;SDS011;13308;50.860;13.664;2023-07-20T11:20:50;4.82;;;4.43;;
25129;SDS011;13308;50.860;13.664;2023-07-20T11:23:16;5.30;;;4.10;;
25129;SDS011;13308;50.860;13.664;2023-07-20T11:25:41;3.65;;;3.35;;
25129;SDS011;13308;50.860;13.664;2023-07-20T11:28:07;3.47;;;3.20;;
25129;SDS011;13308;50.860;13.664;2023-07-20T11:30:35;4.50;;;4.10;;
25129;SDS011;13308;50.860;13.664;2023-07-20T11:33:01;4.38;;;3.97;;
25129;SDS011;13308;50.860;13.664;2023-07-20T11:35:27;3.72;;;3.42;;
25129;SDS011;13308;50.860;13.664;2023-07-20T11:37:52;4.30;;;3.97;;
25129;SDS011;13308;50.860;13.664;2023-07-20T11:40:18;3.30;;;3.10;;
25129;SDS011;13308;50.860;13.664;2023-07-20T11:42:43;5.00;;;3.72;;
25129;SDS011;13308;50.860;13.664;2023-07-20T11:45:10;6.13;;;3.38;;
25129;SDS011;13308;50.860;13.664;2023-07-20T11:47:39;2.95;;;2.75;;
25129;SDS011;13308;50.860;13.664;2023-07-20T11:50:06;2.67;;;2.47;;
25129;SDS011;13308;50.860;13.664;2023-07-20T11:52:32;3.88;;;3.35;;
25129;SDS011;13308;50.860;13.664;2023-07-20T11:54:58;2.90;;;2.63;;
25129;SDS011;13308;50.860;13.664;2023-07-20T11:57:24;3.03;;;2.83;;
25129;SDS011;13308;50.860;13.664;2023-07-20T11:59:52;3.00;;;2.78;;
25129;SDS011;13308;50.860;13.664;2023-07-20T12:02:20;2.95;;;2.40;;
25129;SDS011;13308;50.860;13.664;2023-07-20T12:04:47;2.67;;;2.47;;
25129;SDS011;13308;50.860;13.664;2023-07-20T12:07:12;2.83;;;2.63;;
25129;SDS011;13308;50.860;13.664;2023-07-20T12:09:38;3.03;;;2.80;;
25129;SDS011;13308;50.860;13.664;2023-07-20T12:12:09;2.78;;;2.58;;
25129;SDS011;13308;50.860;13.664;2023-07-20T12:14:36;3.05;;;2.30;;
25129;SDS011;13308;50.860;13.664;2023-07-20T12:17:01;2.53;;;2.33;;
25129;SDS011;13308;50.860;13.664;2023-07-20T12:19:27;2.50;;;2.30;;
25129;SDS011;13308;50.860;13.664;2023-07-20T12:21:56;2.42;;;2.22;;
25129;SDS011;13308;50.860;13.664;2023-07-20T12:24:24;2.42;;;2.22;;
25129;SDS011;13308;50.860;13.664;2023-07-20T12:26:55;2.22;;;2.03;;
25129;SDS011;13308;50.860;13.664;2023-07-20T12:29:22;2.15;;;1.95;;
25129;SDS011;13308;50.860;13.664;2023-07-20T12:31:48;2.72;;;2.50;;
25129;SDS011;13308;50.860;13.664;2023-07-20T12:34:13;2.80;;;2.60;;
25129;SDS011;13308;50.860;13.664;2023-07-20T12:39:55;2.67;;;2.47;;
25129;SDS011;13308;50.860;13.664;2023-07-20T12:42:20;3.10;;;2.80;;
25129;SDS011;13308;50.860;13.664;2023-07-20T12:44:45;2.30;;;2.10;;
25129;SDS011;13308;50.860;13.664;2023-07-20T12:47:12;5.18;;;4.78;;
25129;SDS011;13308;50.860;13.664;2023-07-20T12:49:37;7.45;;;6.85;;
25129;SDS011;13308;50.860;13.664;2023-07-20T12:52:03;6.00;;;5.50;;
25129;SDS011;13308;50.860;13.664;2023-07-20T12:54:28;3.30;;;3.10;;
25129;SDS011;13308;50.860;13.664;2023-07-20T12:56:53;2.88;;;2.67;;
25129;SDS011;13308;50.860;13.664;2023-07-20T12:59:19;2.20;;;2.00;;
25129;SDS011;13308;50.860;13.664;2023-07-20T13:01:45;2.13;;;2.03;;
25129;SDS011;13308;50.860;13.664;2023-07-20T13:04:10;2.70;;;2.50;;
25129;SDS011;13308;50.860;13.664;2023-07-20T13:06:36;3.58;;;3.20;;
25129;SDS011;13308;50.860;13.664;2023-07-20T13:09:01;3.58;;;3.28;;
25129;SDS011;13308;50.860;13.664;2023-07-20T13:11:28;4.05;;;3.75;;
25129;SDS011;13308;50.860;13.664;2023-07-20T13:13:53;4.32;;;4.03;;
25129;SDS011;13308;50.860;13.664;2023-07-20T13:16:18;5.22;;;4.10;;
25129;SDS011;13308;50.860;13.664;2023-07-20T13:18:44;4.07;;;3.78;;
25129;SDS011;13308;50.860;13.664;2023-07-20T13:21:09;3.55;;;3.28;;
25129;SDS011;13308;50.860;13.664;2023-07-20T13:23:36;3.42;;;3.13;;
25129;SDS011;13308;50.860;13.664;2023-07-20T13:26:02;2.75;;;2.55;;
25129;SDS011;13308;50.860;13.664;2023-07-20T13:28:30;2.80;;;2.60;;
25129;SDS011;13308;50.860;13.664;2023-07-20T13:30:55;3.15;;;2.60;;
25129;SDS011;13308;50.860;13.664;2023-07-20T13:33:21;2.03;;;1.92;;
25129;SDS011;13308;50.860;13.664;2023-07-20T13:35:46;2.70;;;2.50;;
25129;SDS011;13308;50.860;13.664;2023-07-20T13:38:12;2.30;;;2.10;;
25129;SDS011;13308;50.860;13.664;2023-07-20T13:40:37;2.30;;;2.10;;
25129;SDS011;13308;50.860;13.664;2023-07-20T13:43:02;2.88;;;2.67;;
25129;SDS011;13308;50.860;13.664;2023-07-20T13:45:28;2.70;;;2.50;;
25129;SDS011;13308;50.860;13.664;2023-07-20T13:47:53;2.80;;;2.60;;
25129;SDS011;13308;50.860;13.664;2023-07-20T13:50:18;3.63;;;3.25;;
25129;SDS011;13308;50.860;13.664;2023-07-20T13:52:44;3.45;;;3.15;;
25129;SDS011;13308;50.860;13.664;2023-07-20T13:55:09;2.60;;;2.40;;
25129;SDS011;13308;50.860;13.664;2023-07-20T13:57:34;3.33;;;3.08;;
25129;SDS011;13308;50.860;13.664;2023-07-20T14:00:00;3.40;;;3.05;;
25129;SDS011;13308;50.860;13.664;2023-07-20T14:02:26;2.55;;;2.35;;
25129;SDS011;13308;50.860;13.664;2023-07-20T14:04:52;3.80;;;2.75;;
25129;SDS011;13308;50.860;13.664;2023-07-20T14:07:20;3.22;;;2.88;;
25129;SDS011;13308;50.860;13.664;2023-07-20T14:09:46;3.75;;;3.00;;
25129;SDS011;13308;50.860;13.664;2023-07-20T14:12:11;3.10;;;2.88;;
25129;SDS011;13308;50.860;13.664;2023-07-20T14:14:39;3.10;;;2.75;;
25129;SDS011;13308;50.860;13.664;2023-07-20T14:17:06;3.28;;;2.97;;
25129;SDS011;13308;50.860;13.664;2023-07-20T14:19:31;3.00;;;2.67;;
25129;SDS011;13308;50.860;13.664;2023-07-20T14:21:57;2.70;;;2.50;;
25129;SDS011;13308;50.860;13.664;2023-07-20T14:24:24;2.97;;;2.55;;
25129;SDS011;13308;50.860;13.664;2023-07-20T14:26:50;3.33;;;3.03;;
25129;SDS011;13308;50.860;13.664;2023-07-20T14:29:15;2.92;;;2.65;;
25129;SDS011;13308;50.860;13.664;2023-07-20T14:31:43;2.58;;;2.38;;
25129;SDS011;13308;50.860;13.664;2023-07-20T14:34:08;2.50;;;2.30;;
25129;SDS011;13308;50.860;13.664;2023-07-20T14:36:34;3.28;;;2.25;;
25129;SDS011;13308;50.860;13.664;2023-07-20T14:38:59;1.90;;;1.80;;
25129;SDS011;13308;50.860;13.664;2023-07-20T14:41:24;2.85;;;1.80;;
25129;SDS011;13308;50.860;13.664;2023-07-20T14:43:51;1.80;;;1.70;;
25129;SDS011;13308;50.860;13.664;2023-07-20T14:46:16;1.80;;;1.70;;
25129;SDS011;13308;50.860;13.664;2023-07-20T14:48:41;1.67;;;1.58;;
25129;SDS011;13308;50.860;13.664;2023-07-20T14:51:07;1.77;;;1.67;;
25129;SDS011;13308;50.860;13.664;2023-07-20T14:53:32;1.50;;;1.40;;
25129;SDS011;13308;50.860;13.664;2023-07-20T14:55:58;1.83;;;1.73;;
25129;SDS011;13308;50.860;13.664;2023-07-20T14:58:25;1.80;;;1.50;;
25129;SDS011;13308;50.860;13.664;2023-07-20T15:00:51;1.98;;;1.80;;
25129;SDS011;13308;50.860;13.664;2023-07-20T15:03:16;1.60;;;1.50;;
25129;SDS011;13308;50.860;13.664;2023-07-20T15:05:41;2.00;;;1.90;;
25129;SDS011;13308;50.860;13.664;2023-07-20T15:08:07;1.70;;;1.60;;
25129;SDS011;13308;50.860;13.664;2023-07-20T15:10:33;1.80;;;1.70;;
25129;SDS011;13308;50.860;13.664;2023-07-20T15:12:59;2.20;;;1.40;;
25129;SDS011;13308;50.860;13.664;2023-07-20T15:15:25;1.95;;;1.77;;
25129;SDS011;13308;50.860;13.664;2023-07-20T15:17:50;2.88;;;1.70;;
25129;SDS011;13308;50.860;13.664;2023-07-20T15:20:16;1.52;;;1.42;;
25129;SDS011;13308;50.860;13.664;2023-07-20T15:22:42;1.58;;;1.40;;
25129;SDS011;13308;50.860;13.664;2023-07-20T15:25:08;1.55;;;1.40;;
25129;SDS011;13308;50.860;13.664;2023-07-20T15:27:37;1.52;;;1.40;;
25129;SDS011;13308;50.860;13.664;2023-07-20T15:30:04;1.27;;;1.17;;
25129;SDS011;13308;50.860;13.664;2023-07-20T15:32:30;4.15;;;1.20;;
25129;SDS011;13308;50.860;13.664;2023-07-20T15:34:55;1.50;;;1.40;;
25129;SDS011;13308;50.860;13.664;2023-07-20T15:37:20;1.38;;;1.27;;
25129;SDS011;13308;50.860;13.664;2023-07-20T15:39:49;1.55;;;1.45;;
25129;SDS011;13308;50.860;13.664;2023-07-20T15:42:15;1.50;;;1.40;;
25129;SDS011;13308;50.860;13.664;2023-07-20T15:44:41;3.63;;;1.55;;
25129;SDS011;13308;50.860;13.664;2023-07-20T15:47:06;1.40;;;1.30;;
25129;SDS011;13308;50.860;13.664;2023-07-20T15:49:31;1.77;;;1.40;;
25129;SDS011;13308;50.860;13.664;2023-07-20T15:51:58;1.55;;;1.45;;
25129;SDS011;13308;50.860;13.664;2023-07-20T15:54:24;1.30;;;1.20;;
25129;SDS011;13308;50.860;13.664;2023-07-20T15:56:50;0.93;;;0.90;;
25129;SDS011;13308;50.860;13.664;2023-07-20T15:59:15;1.30;;;1.20;;
25129;SDS011;13308;50.860;13.664;2023-07-20T16:01:42;1.27;;;1.10;;
25129;SDS011;13308;50.860;13.664;2023-07-20T16:04:08;1.10;;;1.10;;
25129;SDS011;13308;50.860;13.664;2023-07-20T16:06:35;1.23;;;1.10;;
25129;SDS011;13308;50.860;13.664;2023-07-20T16:09:01;1.27;;;1.17;;
25129;SDS011;13308;50.860;13.664;2023-07-20T16:11:29;1.27;;;1.10;;
25129;SDS011;13308;50.860;13.664;2023-07-20T16:13:55;1.50;;;1.40;;
25129;SDS011;13308;50.860;13.664;2023-07-20T16:16:21;1.10;;;1.05;;
25129;SDS011;13308;50.860;13.664;2023-07-20T16:18:47;1.00;;;1.00;;
25129;SDS011;13308;50.860;13.664;2023-07-20T16:21:14;1.33;;;1.20;;
25129;SDS011;13308;50.860;13.664;2023-07-20T16:23:40;1.42;;;0.90;;
25129;SDS011;13308;50.860;13.664;2023-07-20T16:26:05;1.23;;;1.13;;
25129;SDS011;13308;50.860;13.664;2023-07-20T16:28:31;1.00;;;0.90;;
25129;SDS011;13308;50.860;13.664;2023-07-20T16:30:56;2.78;;;0.95;;
25129;SDS011;13308;50.860;13.664;2023-07-20T16:33:22;2.13;;;1.20;;
25129;SDS011;13308;50.860;13.664;2023-07-20T16:35:48;1.27;;;1.20;;
25129;SDS011;13308;50.860;13.664;2023-07-20T16:38:13;1.40;;;1.30;;
25129;SDS011;13308;50.860;13.664;2023-07-20T16:40:39;3.80;;;1.92;;
25129;SDS011;13308;50.860;13.664;2023-07-20T16:43:04;2.30;;;1.60;;
25129;SDS011;13308;50.860;13.664;2023-07-20T16:45:33;2.33;;;2.13;;
25129;SDS011;13308;50.860;13.664;2023-07-20T16:47:59;2.35;;;2.15;;
25129;SDS011;13308;50.860;13.664;2023-07-20T16:50:24;3.72;;;1.63;;
25129;SDS011;13308;50.860;13.664;2023-07-20T16:52:49;1.17;;;1.15;;
25129;SDS011;13308;50.860;13.664;2023-07-20T16:55:15;1.60;;;1.50;;
25129;SDS011;13308;50.860;13.664;2023-07-20T16:57:40;2.53;;;2.33;;
25129;SDS011;13308;50.860;13.664;2023-07-20T17:00:06;3.47;;;2.72;;
25129;SDS011;13308;50.860;13.664;2023-07-20T17:02:35;1.85;;;1.75;;
25129;SDS011;13308;50.860;13.664;2023-07-20T17:05:01;2.50;;;1.40;;
25129;SDS011;13308;50.860;13.664;2023-07-20T17:07:27;1.40;;;1.30;;
25129;SDS011;13308;50.860;13.664;2023-07-20T17:09:52;1.13;;;1.02;;
25129;SDS011;13308;50.860;13.664;2023-07-20T17:12:18;1.15;;;1.15;;
25129;SDS011;13308;50.860;13.664;2023-07-20T17:14:43;1.35;;;1.25;;
25129;SDS011;13308;50.860;13.664;2023-07-20T17:17:08;1.50;;;1.27;;
25129;SDS011;13308;50.860;13.664;2023-07-20T17:19:34;1.23;;;1.13;;
25129;SDS011;13308;50.860;13.664;2023-07-20T17:21:59;1.30;;;1.20;;
25129;SDS011;13308;50.860;13.664;2023-07-20T17:24:25;3.05;;;1.30;;
25129;SDS011;13308;50.860;13.664;2023-07-20T17:26:50;3.17;;;1.25;;
25129;SDS011;13308;50.860;13.664;2023-07-20T17:29:15;1.40;;;1.30;;
25129;SDS011;13308;50.860;13.664;2023-07-20T17:31:40;1.75;;;1.27;;
25129;SDS011;13308;50.860;13.664;2023-07-20T17:34:06;1.20;;;1.10;;
25129;SDS011;13308;50.860;13.664;2023-07-20T17:36:32;2.75;;;1.10;;
25129;SDS011;13308;50.860;13.664;2023-07-20T17:38:57;1.13;;;1.05;;
25129;SDS011;13308;50.860;13.664;2023-07-20T17:41:22;1.25;;;1.15;;
25129;SDS011;13308;50.860;13.664;2023-07-20T17:43:48;1.17;;;1.10;;
25129;SDS011;13308;50.860;13.664;2023-07-20T17:46:13;1.10;;;1.10;;
25129;SDS011;13308;50.860;13.664;2023-07-20T17:48:39;1.20;;;1.10;;
25129;SDS011;13308;50.860;13.664;2023-07-20T17:51:04;1.00;;;0.98;;
25129;SDS011;13308;50.860;13.664;2023-07-20T17:53:29;0.90;;;0.90;;
25129;SDS011;13308;50.860;13.664;2023-07-20T17:55:55;1.10;;;1.00;;
25129;SDS011;13308;50.860;13.664;2023-07-20T17:58:21;1.20;;;1.10;;
25129;SDS011;13308;50.860;13.664;2023-07-20T18:00:46;1.00;;;1.00;;
25129;SDS011;13308;50.860;13.664;2023-07-20T18:03:11;2.40;;;1.23;;
25129;SDS011;13308;50.860;13.664;2023-07-20T18:05:37;1.08;;;1.08;;
25129;SDS011;13308;50.860;13.664;2023-07-20T18:08:03;1.40;;;1.05;;
25129;SDS011;13308;50.860;13.664;2023-07-20T18:10:28;1.30;;;1.20;;
25129;SDS011;13308;50.860;13.664;2023-07-20T18:12:54;1.40;;;1.30;;
25129;SDS011;13308;50.860;13.664;2023-07-20T18:15:19;1.23;;;1.13;;
25129;SDS011;13308;50.860;13.664;2023-07-20T18:17:44;1.70;;;1.33;;
25129;SDS011;13308;50.860;13.664;2023-07-20T18:20:10;1.40;;;1.20;;
25129;SDS011;13308;50.860;13.664;2023-07-20T18:22:36;1.40;;;1.30;;
